createdAt,value
2022-09-23T00:00:27.476Z,100723.58
2022-09-23T00:03:17.242Z,100727.08
2022-09-23T00:06:01.940Z,100718.70
2022-09-23T00:08:31.299Z,100719.35
2022-09-23T00:11:18.467Z,100721.60
2022-09-23T00:13:49.736Z,100721.80
2022-09-23T00:16:22.778Z,100716.52
2022-09-23T00:18:52.077Z,100716.13
2022-09-23T00:21:22.416Z,100717.16
2022-09-23T00:23:52.088Z,100714.84
2022-09-23T00:26:23.528Z,100713.09
2022-09-23T00:28:55.666Z,100714.73
2022-09-23T00:31:31.475Z,100714.29
2022-09-23T00:34:02.418Z,100710.77
2022-09-23T00:36:33.066Z,100710.77
2022-09-23T00:39:04.693Z,100711.69
2022-09-23T00:41:36.694Z,100711.65
2022-09-23T00:44:45.059Z,100710.77
2022-09-23T00:47:17.412Z,100708.85
2022-09-23T00:49:51.834Z,100711.05
2022-09-23T00:52:24.992Z,100714.19
2022-09-23T00:54:57.017Z,100716.20
2022-09-23T00:57:28.234Z,100719.19
2022-09-23T00:59:58.308Z,100715.54
2022-09-23T01:02:28.871Z,100713.52
2022-09-23T01:04:59.766Z,100712.09
2022-09-23T01:07:30.579Z,100710.90
2022-09-23T01:10:01.976Z,100709.06
2022-09-23T01:12:50.940Z,100710.92
2022-09-23T01:15:58.294Z,100708.89
2022-09-23T01:18:47.450Z,100705.14
2022-09-23T01:21:39.547Z,100708.68
2022-09-23T01:24:44.726Z,100705.67
2022-09-23T01:27:22.530Z,100711.13
2022-09-23T01:30:11.031Z,100710.16
2022-09-23T01:33:21.079Z,100707.41
2022-09-23T01:36:16.898Z,100708.18
2022-09-23T01:39:14.430Z,100704.96
2022-09-23T01:41:49.439Z,100704.41
2022-09-23T01:44:35.904Z,100703.52
2022-09-23T01:47:17.139Z,100702.69
2022-09-23T01:49:55.614Z,100701.34
2022-09-23T01:52:27.644Z,100702.19
2022-09-23T01:55:00.699Z,100696.24
2022-09-23T01:57:36.060Z,100697.60
2022-09-23T02:00:26.540Z,100698.55
2022-09-23T02:03:05.327Z,100699.73
2022-09-23T02:05:40.893Z,100699.81
2022-09-23T02:08:14.687Z,100703.03
2022-09-23T02:10:56.396Z,100703.17
2022-09-23T02:13:51.939Z,100707.98
2022-09-23T02:16:33.604Z,100706.16
2022-09-23T02:19:28.567Z,100707.48
2022-09-23T02:22:13.216Z,100710.02
2022-09-23T02:24:42.944Z,100709.56
2022-09-23T02:27:37.473Z,100708.45
2022-09-23T02:30:20.630Z,100706.62
2022-09-23T02:32:56.440Z,100704.63
2022-09-23T02:35:38.293Z,100702.41
2022-09-23T02:38:14.695Z,100705.78
2022-09-23T02:40:54.970Z,100707.37
2022-09-23T02:43:36.471Z,100707.20
2022-09-23T02:46:07.842Z,100706.77
2022-09-23T02:48:45.814Z,100707.62
2022-09-23T02:51:16.434Z,100706.02
2022-09-23T02:53:46.998Z,100704.05
2022-09-23T02:56:22.718Z,100701.17
2022-09-23T02:58:58.222Z,100697.21
2022-09-23T03:01:48.268Z,100696.84
2022-09-23T03:04:54.699Z,100696.86
2022-09-23T03:07:54.010Z,100695.24
2022-09-23T03:10:39.609Z,100689.76
2022-09-23T03:13:36.135Z,100690.28
2022-09-23T03:16:05.543Z,100687.30
2022-09-23T03:18:54.354Z,100682.29
2022-09-23T03:21:29.616Z,100682.77
2022-09-23T03:24:02.599Z,100678.92
2022-09-23T03:26:40.040Z,100684.82
2022-09-23T03:29:12.266Z,100685.38
2022-09-23T03:31:44.269Z,100683.90
2022-09-23T03:34:24.697Z,100680.63
2022-09-23T03:37:01.088Z,100680.67
2022-09-23T03:39:51.859Z,100680.95
2022-09-23T03:42:27.807Z,100681.07
2022-09-23T03:44:58.326Z,100678.92
2022-09-23T03:47:29.037Z,100685.86
2022-09-23T03:49:59.542Z,100682.32
2022-09-23T03:52:30.061Z,100681.77
2022-09-23T03:55:01.804Z,100681.50
2022-09-23T03:57:32.328Z,100680.65
2022-09-23T04:00:03.258Z,100682.47
2022-09-23T04:02:41.160Z,100679.61
2022-09-23T04:05:12.361Z,100680.96
2022-09-23T04:07:44.843Z,100680.14
2022-09-23T04:10:14.373Z,100678.41
2022-09-23T04:13:10.023Z,100678.34
2022-09-23T04:15:41.308Z,100675.35
2022-09-23T04:18:11.875Z,100674.41
2022-09-23T04:20:40.731Z,100668.39
2022-09-23T04:23:11.028Z,100672.21
2022-09-23T04:25:49.520Z,100672.34
2022-09-23T04:28:18.725Z,100672.66
2022-09-23T04:30:49.262Z,100671.14
2022-09-23T04:33:18.624Z,100673.38
2022-09-23T04:35:52.103Z,100682.32
2022-09-23T04:38:21.121Z,100675.00
2022-09-23T04:40:52.260Z,100674.90
2022-09-23T04:43:23.775Z,100669.96
2022-09-23T04:46:04.552Z,100667.96
2022-09-23T04:48:34.232Z,100668.23
2022-09-23T04:51:06.431Z,100662.92
2022-09-23T04:53:39.959Z,100663.84
2022-09-23T04:56:12.053Z,100663.55
2022-09-23T04:58:43.673Z,100665.23
2022-09-23T05:01:16.255Z,100663.83
2022-09-23T05:03:47.429Z,100663.23
2022-09-23T05:06:17.523Z,100661.37
2022-09-23T05:08:56.014Z,100661.76
2022-09-23T05:11:26.145Z,100664.27
2022-09-23T05:14:24.149Z,100662.27
2022-09-23T05:16:56.938Z,100663.00
2022-09-23T05:19:25.855Z,100662.06
2022-09-23T05:21:56.744Z,100663.20
2022-09-23T05:24:25.993Z,100661.20
2022-09-23T05:26:56.652Z,100662.13
2022-09-23T05:29:26.994Z,100663.84
2022-09-23T05:31:57.429Z,100670.82
2022-09-23T05:34:28.774Z,100668.58
2022-09-23T05:36:58.872Z,100670.38
2022-09-23T05:39:28.135Z,100669.25
2022-09-23T05:42:01.412Z,100667.36
2022-09-23T05:44:31.715Z,100669.14
2022-09-23T05:47:01.806Z,100672.77
2022-09-23T05:49:58.113Z,100671.72
2022-09-23T05:52:25.914Z,100669.17
2022-09-23T05:55:01.819Z,100667.89
2022-09-23T05:57:33.139Z,100668.42
2022-09-23T06:00:05.075Z,100669.24
2022-09-23T06:02:40.913Z,100668.13
2022-09-23T06:05:12.311Z,100668.14
2022-09-23T06:07:41.318Z,100671.73
2022-09-23T06:10:10.894Z,100668.09
2022-09-23T06:12:42.878Z,100672.80
2022-09-23T06:15:12.602Z,100673.36
2022-09-23T06:17:41.470Z,100677.90
2022-09-23T06:20:14.684Z,100680.38
2022-09-23T06:22:44.513Z,100677.29
2022-09-23T06:25:13.492Z,100680.23
2022-09-23T06:27:43.807Z,100683.29
2022-09-23T06:30:14.507Z,100678.72
2022-09-23T06:32:50.320Z,100675.28
2022-09-23T06:35:27.485Z,100667.41
2022-09-23T06:37:58.448Z,100668.63
2022-09-23T06:40:29.349Z,100665.42
2022-09-23T06:43:00.975Z,100660.05
2022-09-23T06:45:35.150Z,100657.77
2022-09-23T06:48:08.630Z,100658.16
2022-09-23T06:50:37.594Z,100657.06
2022-09-23T06:53:08.975Z,100654.86
2022-09-23T06:55:39.237Z,100657.17
2022-09-23T06:58:10.356Z,100652.45
2022-09-23T07:00:39.456Z,100652.40
2022-09-23T07:03:12.148Z,100654.70
2022-09-23T07:05:42.793Z,100652.36
2022-09-23T07:08:11.692Z,100656.59
2022-09-23T07:10:42.943Z,100659.78
2022-09-23T07:13:16.422Z,100659.60
2022-09-23T07:15:58.738Z,100655.67
2022-09-23T07:18:34.287Z,100661.05
2022-09-23T07:21:15.681Z,100657.20
2022-09-23T07:23:47.687Z,100659.06
2022-09-23T07:26:20.563Z,100656.73
2022-09-23T07:28:58.101Z,100658.36
2022-09-23T07:31:38.768Z,100658.63
2022-09-23T07:34:11.989Z,100654.20
2022-09-23T07:36:41.622Z,100652.29
2022-09-23T07:39:13.523Z,100654.23
2022-09-23T07:41:44.902Z,100654.30
2022-09-23T07:44:15.399Z,100650.23
2022-09-23T07:46:45.119Z,100651.52
2022-09-23T07:49:17.597Z,100650.52
2022-09-23T07:51:46.746Z,100651.52
2022-09-23T07:54:18.697Z,100651.41
2022-09-23T07:56:49.225Z,100650.95
2022-09-23T07:59:19.689Z,100655.25
2022-09-23T08:01:57.203Z,100653.04
2022-09-23T08:04:30.132Z,100649.85
2022-09-23T08:07:02.490Z,100646.36
2022-09-23T08:09:42.148Z,100640.96
2022-09-23T08:12:19.180Z,100642.00
2022-09-23T08:14:50.153Z,100640.46
2022-09-23T08:17:19.780Z,100636.61
2022-09-23T08:19:50.482Z,100638.20
2022-09-23T08:22:20.326Z,100639.14
2022-09-23T08:24:49.975Z,100638.11
2022-09-23T08:27:19.035Z,100641.08
2022-09-23T08:29:48.327Z,100640.20
2022-09-23T08:32:17.214Z,100632.70
2022-09-23T08:34:48.140Z,100627.80
2022-09-23T08:37:19.239Z,100623.27
2022-09-23T08:39:48.196Z,100622.83
2022-09-23T08:42:30.746Z,100623.11
2022-09-23T08:45:06.187Z,100619.78
2022-09-23T08:48:02.391Z,100615.10
2022-09-23T08:50:49.972Z,100609.88
2022-09-23T08:53:29.154Z,100608.88
2022-09-23T08:56:03.103Z,100607.13
2022-09-23T08:58:55.873Z,100610.48
2022-09-23T09:01:42.800Z,100610.55
2022-09-23T09:04:16.804Z,100606.42
2022-09-23T09:07:24.527Z,100603.94
2022-09-23T09:09:55.537Z,100601.04
2022-09-23T09:12:47.087Z,100596.40
2022-09-23T09:15:25.353Z,100599.07
2022-09-23T09:18:17.240Z,100597.70
2022-09-23T09:21:01.698Z,100598.29
2022-09-23T09:23:52.482Z,100602.02
2022-09-23T09:26:27.698Z,100598.41
2022-09-23T09:29:17.159Z,100597.84
2022-09-23T09:31:53.474Z,100587.94
2022-09-23T09:34:46.938Z,100592.33
2022-09-23T09:37:24.051Z,100591.89
2022-09-23T09:39:53.005Z,100591.73
2022-09-23T09:42:32.242Z,100590.90
2022-09-23T09:45:13.747Z,100593.07
2022-09-23T09:47:52.220Z,100591.38
2022-09-23T09:50:50.336Z,100586.34
2022-09-23T09:53:20.576Z,100585.64
2022-09-23T09:56:12.398Z,100583.27
2022-09-23T09:59:01.034Z,100583.98
2022-09-23T10:01:35.316Z,100578.47
2022-09-23T10:04:27.771Z,100574.02
2022-09-23T10:07:15.907Z,100572.78
2022-09-23T10:09:51.359Z,100573.83
2022-09-23T10:12:26.156Z,100568.59
2022-09-23T10:14:58.693Z,100564.98
2022-09-23T10:17:35.947Z,100563.12
2022-09-23T10:20:10.284Z,100558.19
2022-09-23T10:22:43.596Z,100556.06
2022-09-23T10:25:27.917Z,100551.96
2022-09-23T10:27:58.061Z,100551.41
2022-09-23T10:30:28.434Z,100554.20
2022-09-23T10:32:59.259Z,100553.81
2022-09-23T10:35:33.346Z,100555.88
2022-09-23T10:38:02.422Z,100553.81
2022-09-23T10:40:54.788Z,100557.42
2022-09-23T10:44:11.879Z,100551.92
2022-09-23T10:47:04.062Z,100548.82
2022-09-23T10:49:41.899Z,100548.40
2022-09-23T10:52:36.771Z,100558.32
2022-09-23T10:55:24.448Z,100553.86
2022-09-23T10:58:04.661Z,100555.13
2022-09-23T11:01:07.058Z,100552.48
2022-09-23T11:03:54.645Z,100552.16
2022-09-23T11:06:29.319Z,100545.39
2022-09-23T11:09:24.541Z,100543.17
2022-09-23T11:12:21.715Z,100539.34
2022-09-23T11:15:17.020Z,100532.48
2022-09-23T11:18:22.574Z,100539.33
2022-09-23T11:21:21.019Z,100535.94
2022-09-23T11:23:55.762Z,100531.64
2022-09-23T11:26:54.008Z,100534.88
2022-09-23T11:29:34.272Z,100530.61
2022-09-23T11:32:45.121Z,100532.77
2022-09-23T11:35:39.472Z,100528.04
2022-09-23T11:38:19.243Z,100526.98
2022-09-23T11:40:55.161Z,100527.92
2022-09-23T11:43:28.857Z,100527.71
2022-09-23T11:46:21.802Z,100528.45
2022-09-23T11:49:06.937Z,100524.55
2022-09-23T11:51:47.057Z,100520.50
2022-09-23T11:54:26.919Z,100521.64
2022-09-23T11:57:00.802Z,100521.42
2022-09-23T11:59:42.119Z,100517.98
2022-09-23T12:02:32.899Z,100509.98
2022-09-23T12:05:11.162Z,100506.38
2022-09-23T12:07:58.391Z,100501.05
2022-09-23T12:10:46.314Z,100500.02
2022-09-23T12:13:41.119Z,100501.02
2022-09-23T12:16:31.818Z,100500.66
2022-09-23T12:19:16.685Z,100495.80
2022-09-23T12:22:04.150Z,100492.67
2022-09-23T12:24:53.538Z,100496.27
2022-09-23T12:27:44.206Z,100494.73
2022-09-23T12:30:20.236Z,100492.23
2022-09-23T12:32:51.659Z,100491.52
2022-09-23T12:35:38.149Z,100486.66
2022-09-23T12:38:26.740Z,100486.98
2022-09-23T12:40:57.960Z,100486.86
2022-09-23T12:43:34.288Z,100488.09
2022-09-23T12:46:26.120Z,100488.38
2022-09-23T12:49:00.976Z,100485.56
2022-09-23T12:51:38.371Z,100486.27
2022-09-23T12:54:26.762Z,100487.06
2022-09-23T12:56:56.456Z,100489.91
2022-09-23T12:59:29.214Z,100484.94
2022-09-23T13:02:19.770Z,100485.50
2022-09-23T13:05:31.233Z,100482.70
2022-09-23T13:08:07.110Z,100482.03
2022-09-23T13:10:49.881Z,100479.28
2022-09-23T13:13:24.994Z,100478.45
2022-09-23T13:15:55.877Z,100473.98
2022-09-23T13:19:02.994Z,100468.83
2022-09-23T13:21:45.006Z,100463.67
2022-09-23T13:24:13.972Z,100455.05
2022-09-23T13:27:11.559Z,100450.98
2022-09-23T13:30:14.663Z,100445.55
2022-09-23T13:33:05.372Z,100444.97
2022-09-23T13:35:42.168Z,100441.59
2022-09-23T13:38:19.336Z,100437.25
2022-09-23T13:40:52.711Z,100427.33
2022-09-23T13:43:57.888Z,100432.77
2022-09-23T13:46:31.911Z,100429.07
2022-09-23T13:49:03.243Z,100426.63
2022-09-23T13:51:39.589Z,100431.06
2022-09-23T13:54:33.768Z,100426.84
2022-09-23T13:57:03.832Z,100423.82
2022-09-23T13:59:46.437Z,100421.88
2022-09-23T14:02:19.821Z,100419.29
2022-09-23T14:05:03.381Z,100415.08
2022-09-23T14:07:34.854Z,100415.30
2022-09-23T14:10:06.930Z,100410.09
2022-09-23T14:12:43.874Z,100404.91
2022-09-23T14:15:18.755Z,100402.64
2022-09-23T14:18:13.869Z,100399.17
2022-09-23T14:20:58.850Z,100400.14
2022-09-23T14:23:34.833Z,100400.45
2022-09-23T14:26:08.993Z,100396.71
2022-09-23T14:28:38.044Z,100396.09
2022-09-23T14:31:07.281Z,100398.30
2022-09-23T14:33:43.258Z,100397.50
2022-09-23T14:36:35.410Z,100392.85
2022-09-23T14:39:08.836Z,100390.74
2022-09-23T14:41:45.474Z,100393.59
2022-09-23T14:44:28.461Z,100388.87
2022-09-23T14:47:00.538Z,100391.45
2022-09-23T14:49:31.609Z,100391.00
2022-09-23T14:52:07.429Z,100393.48
2022-09-23T14:54:48.222Z,100390.95
2022-09-23T14:57:29.593Z,100392.70
2022-09-23T15:00:17.892Z,100389.55
2022-09-23T15:03:15.715Z,100387.48
2022-09-23T15:05:49.610Z,100382.69
2022-09-23T15:08:23.421Z,100383.41
2022-09-23T15:10:52.770Z,100383.80
2022-09-23T15:13:34.437Z,100380.59
2022-09-23T15:16:05.193Z,100378.50
2022-09-23T15:18:38.917Z,100380.10
2022-09-23T15:21:11.420Z,100379.94
2022-09-23T15:23:49.266Z,100376.10
2022-09-23T15:26:23.451Z,100376.83
2022-09-23T15:28:56.599Z,100374.35
2022-09-23T15:31:27.413Z,100368.84
2022-09-23T15:34:00.346Z,100369.23
2022-09-23T15:36:31.272Z,100369.74
2022-09-23T15:39:03.335Z,100366.49
2022-09-23T15:41:35.384Z,100367.36
2022-09-23T15:44:22.069Z,100369.98
2022-09-23T15:46:52.435Z,100369.65
2022-09-23T15:49:39.548Z,100372.23
2022-09-23T15:52:12.713Z,100371.49
2022-09-23T15:54:44.907Z,100365.98
2022-09-23T15:57:16.474Z,100368.41
2022-09-23T15:59:45.390Z,100366.98
2022-09-23T16:02:24.227Z,100365.92
2022-09-23T16:04:55.458Z,100364.23
2022-09-23T16:07:25.741Z,100361.98
2022-09-23T16:09:59.098Z,100364.22
2022-09-23T16:12:31.619Z,100362.25
2022-09-23T16:15:13.874Z,100360.75
2022-09-23T16:17:45.234Z,100359.08
2022-09-23T16:20:18.620Z,100361.52
2022-09-23T16:22:54.517Z,100362.37
2022-09-23T16:25:27.762Z,100367.70
2022-09-23T16:27:59.307Z,100367.91
2022-09-23T16:30:32.359Z,100371.41
2022-09-23T16:33:02.592Z,100372.58
2022-09-23T16:35:34.193Z,100370.61
2022-09-23T16:38:04.609Z,100372.67
2022-09-23T16:40:37.916Z,100371.39
2022-09-23T16:43:08.374Z,100371.38
2022-09-23T16:45:38.669Z,100371.71
2022-09-23T16:48:11.009Z,100376.09
2022-09-23T16:50:43.069Z,100372.59
2022-09-23T16:53:17.827Z,100372.97
2022-09-23T16:55:50.185Z,100375.38
2022-09-23T16:58:19.286Z,100375.43
2022-09-23T17:01:09.546Z,100373.98
2022-09-23T17:03:41.321Z,100376.15
2022-09-23T17:06:16.369Z,100378.65
2022-09-23T17:08:48.634Z,100380.71
2022-09-23T17:11:19.902Z,100378.17
2022-09-23T17:13:52.445Z,100374.64
2022-09-23T17:16:27.943Z,100374.17
2022-09-23T17:18:57.691Z,100376.65
2022-09-23T17:21:28.221Z,100377.13
2022-09-23T17:23:59.376Z,100375.75
2022-09-23T17:26:29.412Z,100377.70
2022-09-23T17:29:01.187Z,100376.61
2022-09-23T17:31:31.936Z,100373.44
2022-09-23T17:34:02.046Z,100372.24
2022-09-23T17:36:32.684Z,100374.13
2022-09-23T17:39:04.003Z,100373.49
2022-09-23T17:41:33.512Z,100375.73
2022-09-23T17:44:02.573Z,100371.05
2022-09-23T17:46:33.162Z,100373.73
2022-09-23T17:49:04.350Z,100369.98
2022-09-23T17:51:34.953Z,100371.16
2022-09-23T17:54:03.901Z,100370.59
2022-09-23T17:56:34.312Z,100372.74
2022-09-23T17:59:04.875Z,100370.66
2022-09-23T18:01:37.524Z,100372.02
2022-09-23T18:04:07.320Z,100372.02
2022-09-23T18:06:39.428Z,100373.34
2022-09-23T18:09:09.189Z,100375.41
2022-09-23T18:11:40.476Z,100375.61
2022-09-23T18:14:40.118Z,100376.34
2022-09-23T18:17:09.144Z,100377.57
2022-09-23T18:19:38.500Z,100375.38
2022-09-23T18:22:12.864Z,100377.11
2022-09-23T18:24:42.779Z,100377.11
2022-09-23T18:27:13.106Z,100377.19
2022-09-23T18:29:42.234Z,100375.85
2022-09-23T18:32:14.373Z,100376.83
2022-09-23T18:34:45.164Z,100373.73
2022-09-23T18:37:17.319Z,100376.76
2022-09-23T18:39:49.807Z,100373.21
2022-09-23T18:42:24.056Z,100373.34
2022-09-23T18:44:58.770Z,100368.17
2022-09-23T18:47:52.593Z,100367.19
2022-09-23T18:50:43.661Z,100365.15
2022-09-23T18:53:15.363Z,100367.66
2022-09-23T18:55:48.922Z,100371.67
2022-09-23T18:58:18.617Z,100370.63
2022-09-23T19:00:48.931Z,100371.63
2022-09-23T19:03:20.179Z,100372.70
2022-09-23T19:05:49.954Z,100372.67
2022-09-23T19:08:20.264Z,100371.38
2022-09-23T19:11:00.673Z,100370.04
2022-09-23T19:13:34.515Z,100369.95
2022-09-23T19:16:12.701Z,100371.89
2022-09-23T19:18:44.115Z,100372.40
2022-09-23T19:21:16.299Z,100369.35
2022-09-23T19:23:49.629Z,100369.66
2022-09-23T19:26:22.495Z,100368.96
2022-09-23T19:28:54.664Z,100367.58
2022-09-23T19:31:30.457Z,100365.04
2022-09-23T19:34:25.192Z,100368.84
2022-09-23T19:36:57.839Z,100367.38
2022-09-23T19:39:30.961Z,100369.91
2022-09-23T19:42:01.750Z,100366.85
2022-09-23T19:44:31.944Z,100370.22
2022-09-23T19:47:00.888Z,100370.23
2022-09-23T19:49:33.043Z,100368.85
2022-09-23T19:52:05.417Z,100371.09
2022-09-23T19:54:35.362Z,100366.84
2022-09-23T19:57:07.304Z,100363.38
2022-09-23T19:59:36.216Z,100360.14
2022-09-23T20:02:05.306Z,100360.73
2022-09-23T20:04:35.810Z,100360.52
2022-09-23T20:07:05.950Z,100363.44
2022-09-23T20:09:36.724Z,100363.24
2022-09-23T20:12:06.784Z,100362.20
2022-09-23T20:14:41.069Z,100360.19
2022-09-23T20:17:10.666Z,100358.97
2022-09-23T20:19:42.520Z,100356.77
2022-09-23T20:22:32.438Z,100356.15
2022-09-23T20:25:04.085Z,100355.59
2022-09-23T20:27:35.284Z,100358.10
2022-09-23T20:30:04.772Z,100359.21
2022-09-23T20:32:39.799Z,100357.77
2022-09-23T20:35:13.217Z,100357.19
2022-09-23T20:37:44.753Z,100356.95
2022-09-23T20:40:15.798Z,100358.08
2022-09-23T20:42:49.342Z,100355.14
2022-09-23T20:45:22.718Z,100351.73
2022-09-23T20:47:52.893Z,100354.55
2022-09-23T20:50:24.096Z,100353.48
2022-09-23T20:52:53.702Z,100354.95
2022-09-23T20:55:22.565Z,100355.11
2022-09-23T20:57:51.591Z,100355.25
2022-09-23T21:00:21.549Z,100352.60
2022-09-23T21:02:54.135Z,100351.77
2022-09-23T21:05:25.058Z,100350.98
2022-09-23T21:07:54.036Z,100344.77
2022-09-23T21:10:24.079Z,100351.38
2022-09-23T21:12:54.395Z,100348.98
2022-09-23T21:15:23.441Z,100350.31
2022-09-23T21:17:53.011Z,100354.61
2022-09-23T21:20:24.620Z,100349.43
2022-09-23T21:22:53.709Z,100350.98
2022-09-23T21:25:27.920Z,100349.48
2022-09-23T21:28:02.496Z,100347.08
2022-09-23T21:30:32.834Z,100344.29
2022-09-23T21:33:03.609Z,100345.64
2022-09-23T21:35:33.909Z,100346.48
2022-09-23T21:38:04.650Z,100348.02
2022-09-23T21:40:54.917Z,100351.20
2022-09-23T21:43:26.878Z,100349.15
2022-09-23T21:46:01.022Z,100344.23
2022-09-23T21:48:31.316Z,100341.42
2022-09-23T21:51:06.620Z,100339.89
2022-09-23T21:53:38.366Z,100341.34
2022-09-23T21:56:10.639Z,100337.33
2022-09-23T21:58:43.895Z,100338.52
2022-09-23T22:01:21.529Z,100336.58
2022-09-23T22:03:53.321Z,100337.44
2022-09-23T22:06:30.971Z,100331.98
2022-09-23T22:09:03.081Z,100332.45
2022-09-23T22:11:52.474Z,100333.32
2022-09-23T22:15:11.488Z,100337.80
2022-09-23T22:17:41.447Z,100337.50
2022-09-23T22:20:11.952Z,100335.56
2022-09-23T22:22:41.015Z,100335.63
2022-09-23T22:25:12.954Z,100333.65
2022-09-23T22:28:02.525Z,100332.04
2022-09-23T22:30:50.010Z,100335.10
2022-09-23T22:33:18.885Z,100328.67
2022-09-23T22:35:48.495Z,100332.95
2022-09-23T22:38:17.489Z,100332.20
2022-09-23T22:40:47.680Z,100334.54
2022-09-23T22:43:19.667Z,100331.94
2022-09-23T22:45:55.043Z,100331.04
2022-09-23T22:48:24.429Z,100323.79
2022-09-23T22:50:58.310Z,100327.58
2022-09-23T22:53:28.700Z,100330.35
2022-09-23T22:56:01.590Z,100330.23
2022-09-23T22:58:33.547Z,100332.20
2022-09-23T23:01:03.044Z,100327.61
2022-09-23T23:03:36.004Z,100324.38
2022-09-23T23:06:07.811Z,100323.90
2022-09-23T23:08:37.998Z,100325.90
2022-09-23T23:11:11.933Z,100321.76
2022-09-23T23:13:44.739Z,100321.91
2022-09-23T23:16:15.937Z,100321.45
2022-09-23T23:18:48.035Z,100317.77
2022-09-23T23:21:20.064Z,100315.35
2022-09-23T23:23:54.721Z,100312.69
2022-09-23T23:26:26.977Z,100310.87
2022-09-23T23:28:58.654Z,100308.52
2022-09-23T23:31:32.418Z,100308.73
2022-09-23T23:34:04.865Z,100310.33
2022-09-23T23:36:33.996Z,100308.03
2022-09-23T23:39:03.685Z,100311.19
2022-09-23T23:41:35.417Z,100310.13
2022-09-23T23:44:06.034Z,100310.36
2022-09-23T23:46:37.810Z,100313.58
2022-09-23T23:49:08.130Z,100311.55
2022-09-23T23:51:38.774Z,100313.34
2022-09-23T23:54:09.527Z,100314.00
2022-09-23T23:56:40.047Z,100314.48
2022-09-23T23:59:10.068Z,100311.21
